createdAt,value
2022-10-14T00:01:27.024Z,95926.00
2022-10-14T00:03:56.097Z,95767.00
2022-10-14T00:06:27.534Z,95897.00
2022-10-14T00:08:57.649Z,95880.00
2022-10-14T00:11:31.320Z,95885.00
2022-10-14T00:14:04.375Z,95940.00
2022-10-14T00:16:36.010Z,95882.00
2022-10-14T00:19:06.207Z,95916.00
2022-10-14T00:21:36.756Z,95919.00
2022-10-14T00:24:05.616Z,95682.00
2022-10-14T00:26:39.048Z,95885.00
2022-10-14T00:29:13.152Z,95709.00
2022-10-14T00:31:41.594Z,95898.00
2022-10-14T00:34:13.207Z,95702.00
2022-10-14T00:36:41.671Z,95687.00
2022-10-14T00:39:10.818Z,95855.00
2022-10-14T00:41:41.568Z,95834.00
2022-10-14T00:45:06.581Z,95887.00
2022-10-14T00:47:36.968Z,95640.00
2022-10-14T00:50:06.248Z,95883.00
2022-10-14T00:52:34.906Z,95698.00
2022-10-14T00:55:07.572Z,95880.00
2022-10-14T00:57:37.615Z,95753.00
2022-10-14T01:00:10.648Z,95879.00
2022-10-14T01:02:41.937Z,95930.00
2022-10-14T01:05:14.597Z,95722.00
2022-10-14T01:07:59.075Z,95459.00
2022-10-14T01:10:43.839Z,95901.00
2022-10-14T01:13:27.779Z,95745.00
2022-10-14T01:16:10.665Z,95680.00
2022-10-14T01:19:00.090Z,95670.00
2022-10-14T01:21:38.003Z,95628.00
2022-10-14T01:24:41.599Z,95820.00
2022-10-14T01:27:26.317Z,95737.00
2022-10-14T01:30:17.397Z,95864.00
2022-10-14T01:33:07.363Z,95799.00
2022-10-14T01:35:55.360Z,95855.00
2022-10-14T01:38:31.839Z,95871.00
2022-10-14T01:41:08.012Z,95883.00
2022-10-14T01:43:39.379Z,95881.00
2022-10-14T01:46:12.475Z,95684.00
2022-10-14T01:48:47.995Z,95951.00
2022-10-14T01:51:23.885Z,95790.00
2022-10-14T01:53:58.959Z,95799.00
2022-10-14T01:56:31.160Z,95866.00
2022-10-14T01:59:01.930Z,95865.00
2022-10-14T02:01:34.958Z,95778.00
2022-10-14T02:04:03.611Z,95923.00
2022-10-14T02:06:39.157Z,95929.00
2022-10-14T02:09:21.717Z,95889.00
2022-10-14T02:12:12.549Z,95758.00
2022-10-14T02:14:52.070Z,95775.00
2022-10-14T02:17:33.124Z,95862.00
2022-10-14T02:20:09.784Z,95864.00
2022-10-14T02:22:44.527Z,95893.00
2022-10-14T02:25:19.576Z,95670.00
2022-10-14T02:27:52.406Z,95788.00
2022-10-14T02:30:22.007Z,95853.00
2022-10-14T02:32:54.429Z,95571.00
2022-10-14T02:35:26.016Z,95917.00
2022-10-14T02:37:58.298Z,95625.00
2022-10-14T02:40:34.206Z,95629.00
2022-10-14T02:43:02.908Z,95656.00
2022-10-14T02:45:31.555Z,95648.00
2022-10-14T02:48:01.632Z,95746.00
2022-10-14T02:50:30.096Z,95901.00
2022-10-14T02:52:58.679Z,95757.00
2022-10-14T02:55:27.789Z,95851.00
2022-10-14T02:57:56.389Z,95623.00
2022-10-14T03:00:25.380Z,95314.00
2022-10-14T03:02:53.868Z,95356.00
2022-10-14T03:05:24.085Z,95081.00
2022-10-14T03:07:52.617Z,95777.00
2022-10-14T03:10:21.152Z,95607.00
2022-10-14T03:12:49.748Z,95853.00
2022-10-14T03:15:18.570Z,95632.00
2022-10-14T03:17:47.124Z,95609.00
2022-10-14T03:20:15.557Z,95767.00
2022-10-14T03:22:45.480Z,95625.00
2022-10-14T03:25:14.237Z,95651.00
2022-10-14T03:27:42.799Z,95864.00
2022-10-14T03:30:12.298Z,95732.00
2022-10-14T03:32:40.756Z,95875.00
2022-10-14T03:35:10.635Z,95730.00
2022-10-14T03:37:39.174Z,95760.00
2022-10-14T03:40:11.010Z,95602.00
2022-10-14T03:42:39.642Z,95588.00
2022-10-14T03:45:09.504Z,95698.00
2022-10-14T03:47:38.269Z,95810.00
2022-10-14T03:50:07.858Z,95811.00
2022-10-14T03:52:36.465Z,95814.00
2022-10-14T03:55:05.569Z,95683.00
2022-10-14T03:57:35.602Z,95801.00
2022-10-14T04:00:04.852Z,95809.00
2022-10-14T04:02:33.308Z,95799.00
2022-10-14T04:05:02.222Z,95855.00
2022-10-14T04:07:30.805Z,95794.00
2022-10-14T04:09:59.241Z,95563.00
2022-10-14T04:12:27.722Z,95789.00
2022-10-14T04:14:57.734Z,95678.00
2022-10-14T04:17:26.857Z,95781.00
2022-10-14T04:19:55.332Z,95553.00
2022-10-14T04:22:24.086Z,95786.00
2022-10-14T04:24:52.911Z,95786.00
2022-10-14T04:27:21.357Z,95403.00
2022-10-14T04:29:49.900Z,95781.00
2022-10-14T04:32:20.164Z,95696.00
2022-10-14T04:34:48.983Z,95630.00
2022-10-14T04:37:17.456Z,95772.00
2022-10-14T04:39:45.917Z,95772.00
2022-10-14T04:42:14.862Z,95765.00
2022-10-14T04:44:43.355Z,95762.00
2022-10-14T04:47:11.801Z,95548.00
2022-10-14T04:49:41.671Z,95752.00
2022-10-14T04:52:10.154Z,95808.00
2022-10-14T04:54:38.556Z,95754.00
2022-10-14T04:57:07.541Z,95754.00
2022-10-14T04:59:35.993Z,95758.00
2022-10-14T05:02:04.658Z,95753.00
2022-10-14T05:04:33.194Z,95682.00
2022-10-14T05:07:03.179Z,95636.00
2022-10-14T05:09:31.635Z,95626.00
2022-10-14T05:12:00.118Z,95740.00
2022-10-14T05:14:28.587Z,95738.00
2022-10-14T05:16:57.083Z,95732.00
2022-10-14T05:19:25.536Z,95526.00
2022-10-14T05:21:53.936Z,95742.00
2022-10-14T05:24:23.879Z,95746.00
2022-10-14T05:26:52.371Z,94994.00
2022-10-14T05:29:20.784Z,95729.00
2022-10-14T05:31:49.271Z,95735.00
2022-10-14T05:34:17.686Z,95724.00
2022-10-14T05:36:46.162Z,95729.00
2022-10-14T05:39:14.716Z,95735.00
2022-10-14T05:41:44.540Z,95735.00
2022-10-14T05:44:13.422Z,95734.00
2022-10-14T05:46:41.829Z,95349.00
2022-10-14T05:49:11.863Z,95798.00
2022-10-14T05:51:40.537Z,95737.00
2022-10-14T05:54:09.033Z,95730.00
2022-10-14T05:56:37.837Z,95727.00
2022-10-14T05:59:07.646Z,95720.00
2022-10-14T06:01:36.900Z,95721.00
2022-10-14T06:04:06.026Z,95726.00
2022-10-14T06:06:34.831Z,95714.00
2022-10-14T06:09:05.479Z,95596.00
2022-10-14T06:11:36.326Z,95718.00
2022-10-14T06:14:04.993Z,95717.00
2022-10-14T06:16:34.909Z,95327.00
2022-10-14T06:19:03.458Z,95717.00
2022-10-14T06:21:31.998Z,95718.00
2022-10-14T06:24:00.457Z,95723.00
2022-10-14T06:26:28.913Z,95716.00
2022-10-14T06:28:57.589Z,95710.00
2022-10-14T06:31:29.956Z,95676.00
2022-10-14T06:34:06.112Z,95779.00
2022-10-14T06:36:35.775Z,95700.00
2022-10-14T06:39:05.110Z,95108.00
2022-10-14T06:41:33.953Z,95705.00
2022-10-14T06:44:02.427Z,95213.00
2022-10-14T06:46:32.112Z,95705.00
2022-10-14T06:49:01.923Z,95710.00
2022-10-14T06:51:30.348Z,95707.00
2022-10-14T06:53:58.761Z,95703.00
2022-10-14T06:56:27.438Z,95686.00
2022-10-14T06:58:56.446Z,95332.00
2022-10-14T07:01:25.266Z,95719.00
2022-10-14T07:03:56.594Z,95708.00
2022-10-14T07:06:27.202Z,95483.00
2022-10-14T07:08:55.583Z,95363.00
2022-10-14T07:11:24.007Z,95346.00
2022-10-14T07:13:52.408Z,95416.00
2022-10-14T07:16:20.845Z,95708.00
2022-10-14T07:18:50.144Z,95717.00
2022-10-14T07:21:18.818Z,95715.00
2022-10-14T07:23:48.631Z,95714.00
2022-10-14T07:26:18.518Z,95726.00
2022-10-14T07:28:47.110Z,95710.00
2022-10-14T07:31:15.660Z,95393.00
2022-10-14T07:33:44.165Z,95498.00
2022-10-14T07:36:20.045Z,95770.00
2022-10-14T07:38:52.436Z,95707.00
2022-10-14T07:41:25.617Z,95703.00
2022-10-14T07:43:58.464Z,95720.00
2022-10-14T07:46:32.329Z,95723.00
2022-10-14T07:49:03.848Z,95717.00
2022-10-14T07:51:33.073Z,95728.00
2022-10-14T07:54:06.292Z,95635.00
2022-10-14T07:56:35.168Z,95725.00
2022-10-14T07:59:03.676Z,95733.00
2022-10-14T08:01:32.435Z,95253.00
2022-10-14T08:04:00.952Z,95362.00
2022-10-14T08:06:29.497Z,95725.00
2022-10-14T08:08:58.036Z,95721.00
2022-10-14T08:11:30.041Z,95779.00
2022-10-14T08:14:01.358Z,95671.00
2022-10-14T08:16:33.544Z,95720.00
2022-10-14T08:19:10.901Z,95609.00
2022-10-14T08:21:43.005Z,95707.00
2022-10-14T08:24:12.489Z,95473.00
2022-10-14T08:26:52.658Z,95681.00
2022-10-14T08:29:23.623Z,95714.00
2022-10-14T08:31:55.217Z,95703.00
2022-10-14T08:34:24.506Z,95704.00
2022-10-14T08:36:53.254Z,95711.00
2022-10-14T08:39:22.558Z,95763.00
2022-10-14T08:42:18.769Z,95706.00
2022-10-14T08:44:54.032Z,95702.00
2022-10-14T08:47:27.236Z,95697.00
2022-10-14T08:50:03.757Z,95715.00
2022-10-14T08:52:40.428Z,95691.00
2022-10-14T08:55:27.219Z,95692.00
2022-10-14T08:58:05.120Z,95528.00
2022-10-14T09:00:37.340Z,95699.00
2022-10-14T09:03:17.955Z,95601.00
2022-10-14T09:05:47.616Z,95697.00
2022-10-14T09:08:18.695Z,95654.00
2022-10-14T09:10:47.573Z,95699.00
2022-10-14T09:13:24.773Z,95629.00
2022-10-14T09:16:03.294Z,95634.00
2022-10-14T09:18:38.846Z,95696.00
2022-10-14T09:24:23.760Z,95686.00
2022-10-14T09:26:58.110Z,95685.00
2022-10-14T09:29:30.632Z,95716.00
2022-10-14T09:32:04.034Z,95680.00
2022-10-14T09:34:36.671Z,95524.00
2022-10-14T09:37:27.309Z,95682.00
2022-10-14T09:40:01.225Z,95555.00
2022-10-14T09:42:52.273Z,95675.00
2022-10-14T09:45:24.588Z,95700.00
2022-10-14T09:47:58.198Z,95626.00
2022-10-14T09:50:34.092Z,95674.00
2022-10-14T09:53:10.710Z,95671.00
2022-10-14T09:55:53.135Z,95703.00
2022-10-14T09:58:34.641Z,95669.00
2022-10-14T10:01:05.138Z,95533.00
2022-10-14T10:03:36.794Z,95672.00
2022-10-14T10:06:08.684Z,95611.00
2022-10-14T10:08:39.854Z,95726.00
2022-10-14T10:11:13.757Z,95734.00
2022-10-14T10:13:45.598Z,95691.00
2022-10-14T10:16:25.790Z,95684.00
2022-10-14T10:18:57.296Z,95663.00
2022-10-14T10:21:30.108Z,95654.00
2022-10-14T10:24:01.131Z,95645.00
2022-10-14T10:26:33.250Z,95645.00
2022-10-14T10:29:07.229Z,95572.00
2022-10-14T10:32:07.368Z,95655.00
2022-10-14T10:35:05.314Z,95653.00
2022-10-14T10:37:40.781Z,95592.00
2022-10-14T10:40:37.721Z,95638.00
2022-10-14T10:43:49.275Z,95623.00
2022-10-14T10:46:45.151Z,95624.00
2022-10-14T10:49:30.529Z,95620.00
2022-10-14T10:52:09.907Z,95556.00
2022-10-14T10:54:53.517Z,95424.00
2022-10-14T10:57:45.975Z,95610.00
2022-10-14T11:00:20.996Z,95494.00
2022-10-14T11:03:01.761Z,95625.00
2022-10-14T11:05:53.960Z,95594.00
2022-10-14T11:09:04.720Z,95420.00
2022-10-14T11:12:12.754Z,95583.00
2022-10-14T11:15:10.328Z,95603.00
2022-10-14T11:17:48.441Z,95198.00
2022-10-14T11:20:36.943Z,95639.00
2022-10-14T11:23:39.399Z,95575.00
2022-10-14T11:26:28.944Z,95591.00
2022-10-14T11:29:08.533Z,95569.00
2022-10-14T11:31:51.045Z,95570.00
2022-10-14T11:34:42.892Z,95577.00
2022-10-14T11:37:29.691Z,95567.00
2022-10-14T11:40:07.576Z,95272.00
2022-10-14T11:42:58.585Z,95473.00
2022-10-14T11:45:53.913Z,95140.00
2022-10-14T11:48:31.448Z,95081.00
2022-10-14T11:51:12.105Z,95554.00
2022-10-14T11:53:54.763Z,95358.00
2022-10-14T11:56:35.260Z,95465.00
2022-10-14T11:59:21.048Z,95554.00
2022-10-14T12:01:53.657Z,95546.00
2022-10-14T12:04:29.948Z,95554.00
2022-10-14T12:07:06.694Z,95024.00
2022-10-14T12:09:43.178Z,95550.00
2022-10-14T12:12:17.426Z,95543.00
2022-10-14T12:14:51.153Z,95539.00
2022-10-14T12:17:29.438Z,95530.00
2022-10-14T12:20:02.944Z,95058.00
2022-10-14T12:22:34.981Z,95402.00
2022-10-14T12:25:14.289Z,95528.00
2022-10-14T12:27:43.703Z,95529.00
2022-10-14T12:30:38.807Z,95434.00
2022-10-14T12:33:10.218Z,95443.00
2022-10-14T12:35:59.680Z,95263.00
2022-10-14T12:38:30.528Z,95579.00
2022-10-14T12:41:39.356Z,95253.00
2022-10-14T12:44:18.801Z,95565.00
2022-10-14T12:46:50.557Z,95534.00
2022-10-14T12:49:31.016Z,95506.00
2022-10-14T12:52:04.241Z,95372.00
2022-10-14T12:54:36.827Z,95511.00
2022-10-14T12:57:23.140Z,95509.00
2022-10-14T12:59:53.831Z,95517.00
2022-10-14T13:02:33.571Z,95104.00
2022-10-14T13:05:07.903Z,95258.00
2022-10-14T13:07:49.030Z,95376.00
2022-10-14T13:10:48.049Z,95540.00
2022-10-14T13:14:00.280Z,95432.00
2022-10-14T13:17:23.351Z,95501.00
2022-10-14T13:19:52.088Z,95499.00
2022-10-14T13:22:38.170Z,95312.00
2022-10-14T13:25:19.545Z,95495.00
2022-10-14T13:28:12.234Z,95525.00
2022-10-14T13:30:56.689Z,95524.00
2022-10-14T13:33:37.673Z,95486.00
2022-10-14T13:36:17.760Z,95493.00
2022-10-14T13:38:54.967Z,95509.00
2022-10-14T13:41:29.830Z,95514.00
2022-10-14T13:44:02.093Z,95329.00
2022-10-14T13:46:38.684Z,95490.00
2022-10-14T13:51:52.877Z,95527.00
2022-10-14T13:54:23.933Z,95504.00
2022-10-14T13:57:34.985Z,95489.00
2022-10-14T14:02:51.493Z,95487.00
2022-10-14T14:05:24.408Z,95542.00
2022-10-14T14:11:14.894Z,95491.00
2022-10-14T14:13:57.541Z,95500.00
2022-10-14T14:16:33.222Z,95402.00
2022-10-14T14:19:08.687Z,95530.00
2022-10-14T14:21:38.594Z,95370.00
2022-10-14T14:24:19.193Z,95002.00
2022-10-14T14:26:47.935Z,95241.00
2022-10-14T14:29:20.278Z,95482.00
2022-10-14T14:34:43.756Z,95430.00
2022-10-14T14:37:47.755Z,95481.00
2022-10-14T14:40:20.229Z,95454.00
2022-10-14T14:42:52.435Z,95515.00
2022-10-14T14:45:25.541Z,95259.00
2022-10-14T14:47:57.955Z,95426.00
2022-10-14T14:50:32.805Z,95426.00
2022-10-14T14:53:08.722Z,95495.00
2022-10-14T14:55:43.568Z,95484.00
2022-10-14T14:58:34.370Z,95348.00
2022-10-14T15:01:03.158Z,95419.00
2022-10-14T15:03:35.564Z,95487.00
2022-10-14T15:06:07.174Z,95075.00
2022-10-14T15:08:38.124Z,94912.00
2022-10-14T15:11:06.938Z,94821.00
2022-10-14T15:13:50.470Z,95112.00
2022-10-14T15:16:37.985Z,95350.00
2022-10-14T15:19:35.569Z,95416.00
2022-10-14T15:22:31.939Z,95425.00
2022-10-14T15:25:07.652Z,94662.00
2022-10-14T15:27:51.412Z,95400.00
2022-10-14T15:30:34.990Z,95182.00
2022-10-14T15:36:11.771Z,95407.00
2022-10-14T15:38:41.960Z,95312.00
2022-10-14T15:41:11.896Z,95413.00
2022-10-14T15:43:40.995Z,95304.00
2022-10-14T15:46:32.673Z,95486.00
2022-10-14T15:49:06.293Z,95116.00
2022-10-14T15:51:35.137Z,95417.00
2022-10-14T15:54:06.363Z,95473.00
2022-10-14T15:56:35.326Z,95205.00
2022-10-14T15:59:04.078Z,95143.00
2022-10-14T16:01:35.974Z,95415.00
2022-10-14T16:04:04.851Z,95422.00
2022-10-14T16:06:33.817Z,95246.00
2022-10-14T16:09:02.834Z,95411.00
2022-10-14T16:11:33.232Z,94760.00
2022-10-14T16:14:02.402Z,95454.00
2022-10-14T16:16:37.808Z,95321.00
2022-10-14T16:19:06.388Z,95415.00
2022-10-14T16:21:34.869Z,95419.00
2022-10-14T16:24:05.385Z,95422.00
2022-10-14T16:26:35.288Z,95410.00
2022-10-14T16:29:04.087Z,95416.00
2022-10-14T16:31:32.639Z,95235.00
2022-10-14T16:34:02.200Z,95220.00
2022-10-14T16:36:31.231Z,95423.00
2022-10-14T16:39:00.633Z,95502.00
2022-10-14T16:41:31.079Z,95364.00
2022-10-14T16:44:01.646Z,95423.00
2022-10-14T16:46:44.465Z,95427.00
2022-10-14T16:49:14.489Z,95405.00
2022-10-14T16:51:44.606Z,95429.00
2022-10-14T16:54:14.209Z,95434.00
2022-10-14T16:56:56.939Z,95009.00
2022-10-14T16:59:28.570Z,95333.00
2022-10-14T17:01:57.735Z,95424.00
2022-10-14T17:04:27.724Z,95303.00
2022-10-14T17:06:57.231Z,95316.00
2022-10-14T17:09:26.319Z,95347.00
2022-10-14T17:11:54.870Z,95430.00
2022-10-14T17:14:24.336Z,95322.00
2022-10-14T17:16:54.218Z,95423.00
2022-10-14T17:19:23.934Z,95421.00
2022-10-14T17:21:52.453Z,95425.00
2022-10-14T17:24:20.956Z,95423.00
2022-10-14T17:26:49.411Z,95339.00
2022-10-14T17:29:17.908Z,95429.00
2022-10-14T17:31:46.380Z,95432.00
2022-10-14T17:34:16.453Z,95092.00
2022-10-14T17:36:44.922Z,95433.00
2022-10-14T17:39:20.143Z,94992.00
2022-10-14T17:41:54.450Z,94904.00
2022-10-14T17:44:22.932Z,95242.00
2022-10-14T17:46:51.419Z,95424.00
2022-10-14T17:49:21.582Z,94972.00
2022-10-14T17:51:50.046Z,95326.00
2022-10-14T17:54:18.522Z,95377.00
2022-10-14T17:56:46.972Z,95423.00
2022-10-14T17:59:15.831Z,95254.00
2022-10-14T18:02:01.635Z,95282.00
2022-10-14T18:04:33.450Z,95481.00
2022-10-14T18:07:02.084Z,95425.00
2022-10-14T18:09:30.629Z,95425.00
2022-10-14T18:12:14.498Z,95418.00
2022-10-14T18:14:43.617Z,95502.00
2022-10-14T18:17:13.485Z,95391.00
2022-10-14T18:19:46.038Z,95009.00
2022-10-14T18:22:17.107Z,95218.00
2022-10-14T18:24:45.628Z,95407.00
2022-10-14T18:27:14.083Z,95401.00
2022-10-14T18:29:42.500Z,95412.00
2022-10-14T18:32:10.971Z,95300.00
2022-10-14T18:34:39.733Z,95388.00
2022-10-14T18:37:09.551Z,95414.00
2022-10-14T18:39:38.249Z,95385.00
2022-10-14T18:42:06.748Z,95042.00
2022-10-14T18:44:35.327Z,95378.00
2022-10-14T18:47:03.747Z,95252.00
2022-10-14T18:49:36.836Z,95206.00
2022-10-14T18:52:10.341Z,95377.00
2022-10-14T18:54:38.760Z,95269.00
2022-10-14T18:57:07.247Z,94809.00
2022-10-14T18:59:35.857Z,95106.00
2022-10-14T19:02:04.286Z,95376.00
2022-10-14T19:04:32.944Z,94939.00
2022-10-14T19:07:01.341Z,95371.00
2022-10-14T19:09:33.853Z,95378.00
2022-10-14T19:12:22.577Z,95377.00
2022-10-14T19:14:51.191Z,95377.00
2022-10-14T19:17:19.614Z,95375.00
2022-10-14T19:19:48.124Z,95216.00
2022-10-14T19:22:16.575Z,95360.00
2022-10-14T19:24:46.523Z,95293.00
2022-10-14T19:27:14.934Z,95369.00
2022-10-14T19:29:43.409Z,95367.00
2022-10-14T19:32:11.857Z,95370.00
2022-10-14T19:34:44.846Z,95362.00
2022-10-14T19:37:15.490Z,95391.00
2022-10-14T19:39:45.352Z,95164.00
2022-10-14T19:42:13.760Z,95355.00
2022-10-14T19:44:42.179Z,94955.00
2022-10-14T19:47:10.759Z,95349.00
2022-10-14T19:49:39.223Z,95339.00
2022-10-14T19:52:07.649Z,95335.00
2022-10-14T19:54:36.258Z,95339.00
2022-10-14T19:57:06.041Z,95338.00
2022-10-14T19:59:34.696Z,95034.00
2022-10-14T20:02:03.155Z,95329.00
2022-10-14T20:04:31.623Z,95321.00
2022-10-14T20:07:00.105Z,95319.00
2022-10-14T20:09:28.925Z,95353.00
2022-10-14T20:11:57.437Z,95308.00
2022-10-14T20:14:28.001Z,95307.00
2022-10-14T20:16:56.440Z,95310.00
2022-10-14T20:19:24.887Z,95138.00
2022-10-14T20:21:53.395Z,95307.00
2022-10-14T20:24:21.805Z,95309.00
2022-10-14T20:26:50.271Z,95309.00
2022-10-14T20:29:19.053Z,94729.00
2022-10-14T20:31:48.950Z,95298.00
2022-10-14T20:34:17.886Z,95297.00
2022-10-14T20:36:46.527Z,95286.00
2022-10-14T20:39:15.185Z,95005.00
2022-10-14T20:41:43.624Z,95280.00
2022-10-14T20:44:12.091Z,95284.00
2022-10-14T20:46:40.568Z,95223.00
2022-10-14T20:49:10.856Z,95186.00
2022-10-14T20:51:39.470Z,95268.00
2022-10-14T20:54:10.979Z,95267.00
2022-10-14T20:56:40.284Z,95264.00
2022-10-14T20:59:12.561Z,95195.00
2022-10-14T21:01:41.131Z,95264.00
2022-10-14T21:04:10.986Z,95256.00
2022-10-14T21:06:39.938Z,95261.00
2022-10-14T21:09:08.655Z,95249.00
2022-10-14T21:11:37.174Z,95256.00
2022-10-14T21:14:05.643Z,95251.00
2022-10-14T21:16:37.063Z,95253.00
2022-10-14T21:19:08.073Z,94978.00
2022-10-14T21:21:40.714Z,95082.00
2022-10-14T21:24:10.018Z,95248.00
2022-10-14T21:26:38.472Z,95242.00
2022-10-14T21:29:07.213Z,95238.00
2022-10-14T21:31:35.994Z,95233.00
2022-10-14T21:34:06.684Z,95231.00
2022-10-14T21:36:37.504Z,95041.00
2022-10-14T21:39:10.600Z,95228.00
2022-10-14T21:41:40.369Z,95220.00
2022-10-14T21:44:10.599Z,95222.00
2022-10-14T21:46:39.109Z,95221.00
2022-10-14T21:49:07.900Z,94557.00
2022-10-14T21:51:38.345Z,94959.00
2022-10-14T21:54:07.754Z,95248.00
2022-10-14T21:56:36.189Z,95205.00
2022-10-14T21:59:05.330Z,94870.00
2022-10-14T22:01:34.065Z,95079.00
2022-10-14T22:04:06.443Z,95060.00
2022-10-14T22:06:37.649Z,95196.00
2022-10-14T22:09:08.140Z,95191.00
2022-10-14T22:11:39.980Z,95224.00
2022-10-14T22:14:14.173Z,95177.00
2022-10-14T22:16:42.745Z,95055.00
2022-10-14T22:19:13.077Z,95207.00
2022-10-14T22:21:46.206Z,95005.00
2022-10-14T22:24:15.084Z,95084.00
2022-10-14T22:26:43.642Z,94611.00
2022-10-14T22:29:15.875Z,95174.00
2022-10-14T22:31:44.907Z,95174.00
2022-10-14T22:34:16.579Z,95170.00
2022-10-14T22:36:47.062Z,95010.00
2022-10-14T22:39:18.852Z,94948.00
2022-10-14T22:41:47.681Z,95161.00
2022-10-14T22:44:16.535Z,95161.00
2022-10-14T22:46:45.335Z,95044.00
2022-10-14T22:49:13.858Z,95166.00
2022-10-14T22:51:42.563Z,95187.00
2022-10-14T22:54:12.772Z,95146.00
2022-10-14T22:56:42.258Z,95185.00
2022-10-14T22:59:12.997Z,95143.00
2022-10-14T23:01:44.095Z,94895.00
2022-10-14T23:04:13.692Z,95225.00
2022-10-14T23:06:45.083Z,94335.00
2022-10-14T23:09:15.002Z,95130.00
2022-10-14T23:11:43.583Z,95129.00
2022-10-14T23:14:13.461Z,95153.00
2022-10-14T23:16:42.178Z,95129.00
2022-10-14T23:19:10.916Z,95119.00
2022-10-14T23:21:40.280Z,95023.00
2022-10-14T23:24:12.773Z,94881.00
2022-10-14T23:26:42.600Z,95121.00
2022-10-14T23:29:12.819Z,95122.00
2022-10-14T23:31:42.799Z,95047.00
2022-10-14T23:34:14.887Z,95120.00
2022-10-14T23:36:45.285Z,95119.00
2022-10-14T23:39:13.853Z,95109.00
2022-10-14T23:41:43.763Z,95107.00
2022-10-14T23:44:13.013Z,95104.00
2022-10-14T23:46:41.459Z,95102.00
2022-10-14T23:49:25.086Z,95099.00
2022-10-14T23:51:55.279Z,94797.00
2022-10-14T23:54:23.809Z,95089.00
2022-10-14T23:56:53.712Z,95088.00
2022-10-14T23:59:22.352Z,95084.00
